Time;durP1;ratioP1;P1;durP2;ratioP2;P2;SDS_P1;SDS_P2;PMS_P1;PMS_P2;Temp;Humidity;BMP_temperature;BMP_pressure;BME280_temperature;BME280_humidity;BME280_pressure;Samples;Min_cycle;Max_cycle;Signal;HPM_P1;HPM_P2
2023/08/07 00:02:07;;;;;;;1999.90;999.90;;;15.40;99.90;;;;;;5074383;28;20111;-73
2023/08/07 00:04:33;;;;;;;1999.90;999.90;;;15.40;99.90;;;;;;5056052;28;20483;-73
2023/08/07 00:06:59;;;;;;;1999.90;999.90;;;15.40;99.90;;;;;;5074542;28;20048;-75
2023/08/07 00:09:25;;;;;;;1999.90;999.90;;;15.40;99.90;;;;;;5073988;28;20051;-74
2023/08/07 00:11:50;;;;;;;1999.90;999.90;;;15.40;99.90;;;;;;5056079;28;20102;-74
2023/08/07 00:14:16;;;;;;;1999.90;999.90;;;15.40;99.90;;;;;;5039483;28;20051;-74
2023/08/07 00:16:42;;;;;;;1999.90;999.90;;;15.40;99.90;;;;;;5073802;28;20040;-75
2023/08/07 00:19:08;;;;;;;1999.90;999.90;;;15.40;99.90;;;;;;5073545;28;20040;-75
2023/08/07 00:21:35;;;;;;;1999.90;999.90;;;15.40;99.90;;;;;;5073359;28;20060;-75
2023/08/07 00:24:01;;;;;;;1999.90;999.90;;;15.40;99.90;;;;;;5056816;28;20056;-76
2023/08/07 00:26:27;;;;;;;1999.90;999.90;;;15.40;99.90;;;;;;5056123;28;20547;-75
2023/08/07 00:28:53;;;;;;;1999.90;999.90;;;15.40;99.90;;;;;;5056708;28;20119;-75
2023/08/07 00:31:18;;;;;;;1999.90;999.90;;;15.40;99.90;;;;;;5039423;28;20063;-75
2023/08/07 00:33:44;;;;;;;1999.90;999.90;;;15.50;99.90;;;;;;5073661;28;20045;-75
2023/08/07 00:36:10;;;;;;;1999.90;999.90;;;15.50;99.90;;;;;;5039173;28;20617;-74
2023/08/07 00:38:35;;;;;;;1999.90;999.90;;;15.50;99.90;;;;;;5056113;28;20048;-74
2023/08/07 00:41:01;;;;;;;1999.90;999.90;;;15.50;99.90;;;;;;5039614;28;20045;-75
2023/08/07 00:43:27;;;;;;;1999.90;999.90;;;15.50;99.90;;;;;;5073491;28;20125;-74
2023/08/07 00:45:53;;;;;;;1999.90;999.90;;;15.50;99.90;;;;;;5073509;28;20095;-75
2023/08/07 00:48:19;;;;;;;1999.90;999.90;;;15.50;99.90;;;;;;5022786;28;20056;-75
2023/08/07 00:50:47;;;;;;;1999.90;999.90;;;15.50;99.90;;;;;;5039239;28;20053;-75
2023/08/07 00:53:13;;;;;;;1999.90;999.90;;;15.60;99.90;;;;;;5055819;28;20044;-73
2023/08/07 00:55:39;;;;;;;1999.90;999.90;;;15.60;99.90;;;;;;5056135;28;20075;-75
2023/08/07 00:58:04;;;;;;;1999.90;999.90;;;15.60;99.90;;;;;;5073210;28;20048;-77
2023/08/07 01:00:30;;;;;;;1999.90;999.90;;;15.60;99.90;;;;;;5073379;28;20048;-75
2023/08/07 01:02:56;;;;;;;1999.90;999.90;;;15.50;99.90;;;;;;5039005;28;20391;-75
2023/08/07 01:05:25;;;;;;;1999.90;999.90;;;15.50;99.90;;;;;;5073363;28;20036;-74
2023/08/07 01:07:54;;;;;;;1999.90;999.90;;;15.50;99.90;;;;;;5074061;28;20165;-75
2023/08/07 01:10:25;;;;;;;1999.90;999.90;;;15.50;99.90;;;;;;5055345;28;20049;-76
2023/08/07 01:13:03;;;;;;;1999.90;999.90;;;15.50;99.90;;;;;;5074089;28;20111;-75
2023/08/07 01:15:32;;;;;;;1999.90;999.90;;;15.50;99.90;;;;;;5073336;28;20055;-75
2023/08/07 01:17:59;;;;;;;1999.90;999.90;;;15.50;99.90;;;;;;5073383;28;20049;-74
2023/08/07 01:20:24;;;;;;;1999.90;999.90;;;15.60;99.90;;;;;;5056246;28;20121;-76
2023/08/07 01:22:50;;;;;;;1999.90;999.90;;;15.50;99.90;;;;;;5073121;28;20052;-74
2023/08/07 01:25:16;;;;;;;1999.90;999.90;;;15.50;99.90;;;;;;5059404;28;20053;-72
2023/08/07 01:28:10;;;;;;;1999.90;999.90;;;15.50;99.90;;;;;;5076968;28;20155;-73
2023/08/07 01:30:40;;;;;;;1999.90;999.90;;;15.50;99.90;;;;;;5060131;28;20052;-74
2023/08/07 01:33:32;;;;;;;1999.90;999.90;;;15.50;99.90;;;;;;5077465;28;20094;-74
2023/08/07 01:36:01;;;;;;;1999.90;999.90;;;15.40;99.90;;;;;;5077090;28;20052;-74
2023/08/07 01:38:28;;;;;;;1999.90;999.90;;;15.40;99.90;;;;;;5077048;28;20094;-72
2023/08/07 01:40:54;;;;;;;1999.90;999.90;;;15.40;99.90;;;;;;5076647;28;20058;-70
2023/08/07 01:43:20;;;;;;;1999.90;999.90;;;15.30;99.90;;;;;;5076432;28;20044;-71
2023/08/07 01:45:46;;;;;;;1999.90;999.90;;;15.30;99.90;;;;;;5076350;28;20484;-73
2023/08/07 01:48:12;;;;;;;1999.90;999.90;;;15.30;99.90;;;;;;5076530;28;20040;-72
2023/08/07 01:50:39;;;;;;;1999.90;999.90;;;15.20;99.90;;;;;;5076545;28;20049;-72
2023/08/07 01:53:05;;;;;;;1999.90;999.90;;;15.30;99.90;;;;;;5076512;28;20052;-71
2023/08/07 01:55:31;;;;;;;1999.90;999.90;;;15.30;99.90;;;;;;5076499;28;20094;-72
2023/08/07 01:57:57;;;;;;;1999.90;999.90;;;15.30;99.90;;;;;;5076273;28;20094;-74
2023/08/07 02:00:23;;;;;;;1999.90;999.90;;;15.30;99.90;;;;;;5076622;28;20044;-71
2023/08/07 02:02:49;;;;;;;1999.90;999.90;;;15.30;99.90;;;;;;5076653;28;20044;-71
2023/08/07 02:05:15;;;;;;;1999.90;999.90;;;15.30;99.90;;;;;;5059030;28;20446;-72
2023/08/07 02:07:42;;;;;;;1999.90;999.90;;;15.30;99.90;;;;;;5076900;28;20044;-73
2023/08/07 02:10:08;;;;;;;1999.90;999.90;;;15.30;99.90;;;;;;5077051;28;20044;-72
2023/08/07 02:12:33;;;;;;;1999.90;999.90;;;15.30;99.90;;;;;;5058550;28;20097;-72
2023/08/07 02:15:00;;;;;;;1999.90;999.90;;;15.30;99.90;;;;;;5058389;28;20044;-71
2023/08/07 02:17:27;;;;;;;1999.90;999.90;;;15.30;99.90;;;;;;5076013;28;20569;-72
2023/08/07 02:19:53;;;;;;;1999.90;999.90;;;15.30;99.90;;;;;;5076093;28;20040;-72
2023/08/07 02:22:19;;;;;;;1999.90;999.90;;;15.30;99.90;;;;;;5058045;28;20113;-71
2023/08/07 02:24:45;;;;;;;1999.90;999.90;;;15.20;99.90;;;;;;5058379;28;20102;-71
2023/08/07 02:27:11;;;;;;;1999.90;999.90;;;15.20;99.90;;;;;;5058782;28;20083;-72
2023/08/07 02:29:36;;;;;;;1999.90;999.90;;;15.20;99.90;;;;;;5041712;28;20048;-72
2023/08/07 02:32:03;;;;;;;1999.90;999.90;;;15.10;99.90;;;;;;5057971;28;20070;-71
2023/08/07 02:34:30;;;;;;;1999.90;999.90;;;15.10;99.90;;;;;;5040488;28;20404;-72
2023/08/07 02:36:55;;;;;;;1999.90;999.90;;;15.00;99.90;;;;;;5075283;28;20044;-72
2023/08/07 02:39:21;;;;;;;1999.90;999.90;;;15.00;99.90;;;;;;5076534;28;20044;-71
2023/08/07 02:41:47;;;;;;;1999.90;999.90;;;15.00;99.90;;;;;;5057887;28;20479;-72
2023/08/07 02:44:12;;;;;;;1999.90;999.90;;;14.90;99.90;;;;;;5041435;28;20504;-71
2023/08/07 02:46:38;;;;;;;1999.90;999.90;;;14.90;99.90;;;;;;5076067;28;20041;-71
2023/08/07 02:49:04;;;;;;;1999.90;999.90;;;14.90;99.90;;;;;;5041267;28;20044;-72
2023/08/07 02:51:30;;;;;;;1999.90;999.90;;;14.90;99.90;;;;;;5075237;28;20561;-71
2023/08/07 02:53:56;;;;;;;1999.90;999.90;;;14.80;99.90;;;;;;5076249;28;20125;-72
2023/08/07 02:56:22;;;;;;;1999.90;999.90;;;14.80;99.90;;;;;;5076106;28;20508;-72
2023/08/07 02:58:47;;;;;;;1999.90;999.90;;;14.80;99.90;;;;;;5057768;28;20098;-72
2023/08/07 03:01:13;;;;;;;1999.90;999.90;;;14.80;99.90;;;;;;5075877;28;20041;-72
2023/08/07 03:03:39;;;;;;;1999.90;999.90;;;14.70;99.90;;;;;;5075309;28;20059;-73
2023/08/07 03:06:05;;;;;;;1999.90;999.90;;;14.70;99.90;;;;;;5075195;28;20063;-73
2023/08/07 03:08:30;;;;;;;1999.90;999.90;;;14.70;99.90;;;;;;5057515;28;20053;-72
2023/08/07 03:10:57;;;;;;;1999.90;999.90;;;14.70;99.90;;;;;;5040739;28;20087;-71
2023/08/07 03:13:24;;;;;;;1999.90;999.90;;;14.70;99.90;;;;;;5057449;28;20056;-71
2023/08/07 03:15:50;;;;;;;1999.90;999.90;;;14.70;99.90;;;;;;5075063;28;20048;-73
2023/08/07 03:18:17;;;;;;;1999.90;999.90;;;14.70;99.90;;;;;;5075384;28;20487;-72
2023/08/07 03:20:43;;;;;;;1999.90;999.90;;;14.70;99.90;;;;;;5074946;28;20048;-72
2023/08/07 03:23:12;;;;;;;1999.90;999.90;;;14.70;99.90;;;;;;5074463;28;20060;-71
2023/08/07 03:25:38;;;;;;;1999.90;999.90;;;14.70;99.90;;;;;;5040573;28;20090;-71
2023/08/07 03:28:03;;;;;;;1999.90;999.90;;;14.70;99.90;;;;;;5074689;28;20037;-72
2023/08/07 03:30:29;;;;;;;1999.90;999.90;;;14.70;99.90;;;;;;5040494;28;20049;-72
2023/08/07 03:32:55;;;;;;;1999.90;999.90;;;14.70;99.90;;;;;;5074308;28;20052;-71
2023/08/07 03:35:20;;;;;;;1999.90;999.90;;;14.70;99.90;;;;;;5074551;28;20080;-71
2023/08/07 03:37:46;;;;;;;1999.90;999.90;;;14.70;99.90;;;;;;5074536;28;20405;-71
2023/08/07 03:40:12;;;;;;;1999.90;999.90;;;14.70;99.90;;;;;;5074596;28;20051;-71
2023/08/07 03:42:37;;;;;;;1999.90;999.90;;;14.70;99.90;;;;;;5075030;28;20050;-71
2023/08/07 03:45:03;;;;;;;1999.90;999.90;;;14.70;99.90;;;;;;5040185;28;20044;-71
2023/08/07 03:47:29;;;;;;;1999.90;999.90;;;14.70;99.90;;;;;;5074879;28;20052;-72
2023/08/07 03:49:54;;;;;;;1999.90;999.90;;;14.70;99.90;;;;;;5056431;28;20047;-72
2023/08/07 03:52:20;;;;;;;1999.90;999.90;;;14.70;99.90;;;;;;5075220;28;20074;-72
2023/08/07 03:54:46;;;;;;;1999.90;999.90;;;14.70;99.90;;;;;;5074268;28;20048;-73
2023/08/07 03:57:12;;;;;;;1999.90;999.90;;;14.70;99.90;;;;;;5056517;28;20460;-72
2023/08/07 03:59:37;;;;;;;1999.90;999.90;;;14.70;99.90;;;;;;5074363;28;20157;-72
2023/08/07 04:02:03;;;;;;;1999.90;999.90;;;14.70;99.90;;;;;;5056498;28;20048;-72
2023/08/07 04:04:29;;;;;;;1999.90;999.90;;;14.80;99.90;;;;;;5056461;28;20135;-72
2023/08/07 04:06:55;;;;;;;1999.90;999.90;;;14.80;99.90;;;;;;5056512;28;20052;-73
2023/08/07 04:09:20;;;;;;;1999.90;999.90;;;14.80;99.90;;;;;;5074292;28;20040;-72
2023/08/07 04:11:46;;;;;;;1999.90;999.90;;;14.80;99.90;;;;;;5056039;28;20531;-73
2023/08/07 04:14:12;;;;;;;1999.90;999.90;;;14.80;99.90;;;;;;5074108;28;20077;-71
2023/08/07 04:16:37;;;;;;;1999.90;999.90;;;14.80;99.90;;;;;;5056108;28;20479;-71
2023/08/07 04:19:04;;;;;;;1999.90;999.90;;;14.80;99.90;;;;;;5074691;28;20045;-72
2023/08/07 04:21:32;;;;;;;1999.90;999.90;;;14.80;99.90;;;;;;5056675;28;20576;-68
2023/08/07 04:24:00;;;;;;;1999.90;999.90;;;14.80;99.90;;;;;;5074362;28;20048;-71
2023/08/07 04:26:26;;;;;;;1999.90;999.90;;;14.80;99.90;;;;;;5074379;28;20048;-73
2023/08/07 04:28:52;;;;;;;1999.90;999.90;;;14.80;99.90;;;;;;5073441;28;20559;-72
2023/08/07 04:31:17;;;;;;;1999.90;999.90;;;14.70;99.90;;;;;;5074261;28;20131;-72
2023/08/07 04:33:43;;;;;;;1999.90;999.90;;;14.80;99.90;;;;;;5055865;28;20044;-72
2023/08/07 04:36:09;;;;;;;1999.90;999.90;;;14.80;99.90;;;;;;5073597;28;20093;-72
2023/08/07 04:38:34;;;;;;;1999.90;999.90;;;14.80;99.90;;;;;;5055955;28;20102;-73
2023/08/07 04:41:00;;;;;;;1999.90;999.90;;;14.80;99.90;;;;;;5073596;28;20097;-74
2023/08/07 04:43:27;;;;;;;1999.90;999.90;;;14.80;99.90;;;;;;5055607;28;20064;-71
2023/08/07 04:45:53;;;;;;;1999.90;999.90;;;14.90;99.90;;;;;;5074057;28;20426;-73
2023/08/07 04:48:20;;;;;;;1999.90;999.90;;;14.90;99.90;;;;;;5055624;28;20123;-73
2023/08/07 04:50:46;;;;;;;1999.90;999.90;;;14.90;99.90;;;;;;5073978;28;20045;-72
2023/08/07 04:53:12;;;;;;;1999.90;999.90;;;14.90;99.90;;;;;;5073456;28;20047;-73
2023/08/07 04:55:39;;;;;;;1999.90;999.90;;;14.90;99.90;;;;;;5073467;28;20048;-73
2023/08/07 04:58:05;;;;;;;1999.90;999.90;;;14.90;99.90;;;;;;5056060;28;20139;-73
2023/08/07 05:00:31;;;;;;;1999.90;999.90;;;14.90;99.90;;;;;;5059880;28;20118;-72
2023/08/07 05:02:56;;;;;;;1999.90;999.90;;;14.90;99.90;;;;;;5059895;28;20476;-72
2023/08/07 05:05:23;;;;;;;1999.90;999.90;;;14.90;99.90;;;;;;5059878;28;20055;-72
2023/08/07 05:07:48;;;;;;;1999.90;999.90;;;14.90;99.90;;;;;;5077505;28;20078;-72
2023/08/07 05:10:14;;;;;;;1999.90;999.90;;;14.90;99.90;;;;;;5077440;28;20056;-73
2023/08/07 05:12:40;;;;;;;1999.90;999.90;;;15.00;99.90;;;;;;5077323;28;20131;-72
2023/08/07 05:15:06;;;;;;;1999.90;999.90;;;15.00;99.90;;;;;;5077317;28;20044;-73
2023/08/07 05:17:32;;;;;;;1999.90;999.90;;;15.00;99.90;;;;;;5059325;28;20090;-73
2023/08/07 05:19:58;;;;;;;1999.90;999.90;;;15.00;99.90;;;;;;5059395;28;20044;-76
2023/08/07 05:22:24;;;;;;;1999.90;999.90;;;15.00;99.90;;;;;;5058953;28;20450;-71
2023/08/07 05:24:50;;;;;;;1999.90;999.90;;;15.00;99.90;;;;;;5042799;28;20064;-73
2023/08/07 05:27:16;;;;;;;1999.90;999.90;;;15.00;99.90;;;;;;5059296;28;20040;-73
2023/08/07 05:29:45;;;;;;;1999.90;999.90;;;15.00;99.90;;;;;;5059320;28;20074;-72
2023/08/07 05:32:14;;;;;;;1999.90;999.90;;;15.10;99.90;;;;;;5076873;28;20464;-72
2023/08/07 05:34:40;;;;;;;1999.90;999.90;;;15.10;99.90;;;;;;5076865;28;20056;-72
2023/08/07 05:37:06;;;;;;;1999.90;999.90;;;15.10;99.90;;;;;;5076791;28;20091;-71
2023/08/07 05:39:32;;;;;;;1999.90;999.90;;;15.20;99.90;;;;;;5077382;28;20041;-71
2023/08/07 05:41:58;;;;;;;1999.90;999.90;;;15.20;99.90;;;;;;5077570;28;20048;-71
2023/08/07 05:44:24;;;;;;;1999.90;999.90;;;15.20;99.90;;;;;;5059064;28;20048;-75
2023/08/07 05:46:50;;;;;;;1999.90;999.90;;;15.20;99.90;;;;;;5059335;28;20047;-71
2023/08/07 05:49:16;;;;;;;1999.90;999.90;;;15.20;99.90;;;;;;5059035;28;20060;-71
2023/08/07 05:51:42;;;;;;;1999.90;999.90;;;15.20;99.90;;;;;;5058801;28;20079;-73
2023/08/07 05:54:07;;;;;;;1999.90;999.90;;;15.20;99.90;;;;;;5058585;28;20408;-72
2023/08/07 05:56:33;;;;;;;1999.90;999.90;;;15.30;99.90;;;;;;5058600;28;20037;-71
2023/08/07 05:58:59;;;;;;;1999.90;999.90;;;15.20;99.90;;;;;;5042254;28;20040;-73
2023/08/07 06:01:30;;;;;;;1999.90;999.90;;;15.30;99.90;;;;;;5058769;28;20045;-71
2023/08/07 06:04:00;;;;;;;1999.90;999.90;;;15.20;99.90;;;;;;5076409;28;20044;-73
2023/08/07 06:06:30;;;;;;;1999.90;999.90;;;15.30;99.90;;;;;;5076306;28;20048;-72
2023/08/07 06:08:55;;;;;;;1999.90;999.90;;;15.20;99.90;;;;;;5075981;28;20090;-71
2023/08/07 06:11:21;;;;;;;1999.90;999.90;;;15.20;99.90;;;;;;5058817;28;20048;-72
2023/08/07 06:13:48;;;;;;;1999.90;999.90;;;15.20;99.90;;;;;;5059451;28;20084;-72
2023/08/07 06:16:14;;;;;;;1999.90;999.90;;;15.20;99.90;;;;;;5058946;28;20045;-72
2023/08/07 06:18:39;;;;;;;1999.90;999.90;;;15.20;99.90;;;;;;5059275;28;20374;-71
2023/08/07 06:21:06;;;;;;;1999.90;999.90;;;15.30;99.90;;;;;;5057901;28;20051;-71
2023/08/07 06:23:33;;;;;;;1999.90;999.90;;;15.30;99.90;;;;;;5077262;28;20075;-70
2023/08/07 06:26:03;;;;;;;1999.90;999.90;;;15.30;99.90;;;;;;5076029;28;20153;-73
2023/08/07 06:28:32;;;;;;;1999.90;999.90;;;15.20;99.90;;;;;;5059053;28;20053;-75
2023/08/07 06:31:03;;;;;;;1999.90;999.90;;;15.10;99.90;;;;;;5075514;28;20131;-73
2023/08/07 06:33:29;;;;;;;1999.90;999.90;;;15.00;99.90;;;;;;5058107;28;20105;-73
2023/08/07 06:35:54;;;;;;;1999.90;999.90;;;15.00;99.90;;;;;;5058072;28;20049;-74
2023/08/07 06:38:20;;;;;;;1999.90;999.90;;;15.00;99.90;;;;;;5076166;28;20122;-72
2023/08/07 06:40:46;;;;;;;1999.90;999.90;;;14.90;99.90;;;;;;5075638;28;20075;-73
2023/08/07 06:43:11;;;;;;;1999.90;999.90;;;14.90;99.90;;;;;;5075614;28;20391;-73
2023/08/07 06:45:37;;;;;;;1999.90;999.90;;;14.90;99.90;;;;;;5075527;28;20150;-72
2023/08/07 06:48:03;;;;;;;1999.90;999.90;;;14.90;99.90;;;;;;5058029;28;20048;-70
2023/08/07 06:50:29;;;;;;;1999.90;999.90;;;14.90;99.90;;;;;;5075452;28;20048;-72
2023/08/07 06:52:55;;;;;;;1999.90;999.90;;;14.90;99.90;;;;;;5075940;28;20468;-71
2023/08/07 06:55:21;;;;;;;1999.90;999.90;;;14.90;99.90;;;;;;5076062;28;20048;-73
2023/08/07 06:57:46;;;;;;;1999.90;999.90;;;15.00;99.90;;;;;;5075059;28;20128;-72
2023/08/07 07:00:13;;;;;;;1999.90;999.90;;;15.00;99.90;;;;;;5075216;28;20040;-71
2023/08/07 07:02:38;;;;;;;1999.90;999.90;;;15.10;99.90;;;;;;5057572;28;20040;-70
2023/08/07 07:05:04;;;;;;;1999.90;999.90;;;15.20;99.90;;;;;;5075161;28;20101;-75
2023/08/07 07:07:30;;;;;;;1999.90;999.90;;;15.30;99.90;;;;;;5057342;28;20117;-72
2023/08/07 07:09:57;;;;;;;1999.90;999.90;;;15.20;99.90;;;;;;5057491;28;20080;-72
2023/08/07 07:12:23;;;;;;;1999.90;999.90;;;15.20;99.90;;;;;;5057828;28;20056;-73
2023/08/07 07:14:49;;;;;;;1999.90;999.90;;;15.20;99.90;;;;;;5075935;28;20067;-72
2023/08/07 07:17:15;;;;;;;1999.90;999.90;;;15.20;99.90;;;;;;5041139;28;20130;-72
2023/08/07 07:19:40;;;;;;;1999.90;999.90;;;15.20;99.90;;;;;;5075049;28;20049;-72
2023/08/07 07:22:06;;;;;;;1999.90;999.90;;;15.20;99.90;;;;;;5074288;28;20118;-72
2023/08/07 07:24:32;;;;;;;1999.90;999.90;;;15.20;99.90;;;;;;5040973;28;20053;-71
2023/08/07 07:26:57;;;;;;;1999.90;999.90;;;15.20;99.90;;;;;;5074918;28;20439;-74
2023/08/07 07:29:23;;;;;;;1999.90;999.90;;;15.20;99.90;;;;;;5074740;28;20045;-81
2023/08/07 07:31:50;;;;;;;1999.90;999.90;;;15.20;99.90;;;;;;5074750;28;20494;-73
2023/08/07 07:34:15;;;;;;;1999.90;999.90;;;15.00;99.90;;;;;;5057102;28;20131;-73
2023/08/07 07:36:41;;;;;;;1999.90;999.90;;;15.00;99.90;;;;;;5056796;28;20128;-72
2023/08/07 07:39:07;;;;;;;1999.90;999.90;;;15.00;99.90;;;;;;5057129;28;20464;-73
2023/08/07 07:41:33;;;;;;;1999.90;999.90;;;14.90;99.90;;;;;;5056880;28;20036;-75
2023/08/07 07:43:59;;;;;;;1999.90;999.90;;;15.00;99.90;;;;;;5040692;28;20044;-71
2023/08/07 07:46:26;;;;;;;1999.90;999.90;;;15.00;99.90;;;;;;5074795;28;20384;-72
2023/08/07 07:48:51;;;;;;;1999.90;999.90;;;15.00;99.90;;;;;;5056578;28;20048;-71
2023/08/07 07:51:17;;;;;;;1999.90;999.90;;;15.10;99.90;;;;;;5074622;28;20067;-79
2023/08/07 07:53:43;;;;;;;1999.90;999.90;;;15.10;99.90;;;;;;5074429;28;20048;-73
2023/08/07 07:56:08;;;;;;;1999.90;999.90;;;15.10;99.90;;;;;;5074895;28;20248;-71
2023/08/07 07:58:34;;;;;;;1999.90;999.90;;;15.10;99.90;;;;;;5073728;28;20056;-71
2023/08/07 08:01:00;;;;;;;1999.90;999.90;;;15.20;99.90;;;;;;5056124;28;20054;-71
2023/08/07 08:03:25;;;;;;;1999.90;999.90;;;15.20;99.90;;;;;;5074175;28;20048;-72
2023/08/07 08:05:52;;;;;;;1999.90;999.90;;;15.30;99.90;;;;;;5074146;28;20127;-73
2023/08/07 08:08:18;;;;;;;1999.90;999.90;;;15.50;99.90;;;;;;5074054;28;20040;-70
2023/08/07 08:10:46;;;;;;;1999.90;999.90;;;15.50;99.90;;;;;;5074040;28;20049;-71
2023/08/07 08:13:12;;;;;;;1999.90;999.90;;;15.60;99.90;;;;;;5073964;28;20041;-77
2023/08/07 08:15:38;;;;;;;1999.90;999.90;;;15.60;99.90;;;;;;5039590;28;20472;-77
2023/08/07 08:18:04;;;;;;;1999.90;999.90;;;15.60;99.90;;;;;;5056266;28;20575;-79
2023/08/07 08:20:31;;;;;;;1999.90;999.90;;;15.60;99.90;;;;;;5056349;28;20128;-73
2023/08/07 08:22:57;;;;;;;1999.90;999.90;;;15.70;99.90;;;;;;5055798;28;20083;-74
2023/08/07 08:25:22;;;;;;;1999.90;999.90;;;15.70;99.90;;;;;;5056500;28;20476;-75
2023/08/07 08:27:49;;;;;;;1999.90;999.90;;;15.70;99.90;;;;;;5073799;28;20051;-75
2023/08/07 08:30:15;;;;;;;1999.90;999.90;;;15.70;99.90;;;;;;5039491;28;20059;-72
2023/08/07 08:32:43;;;;;;;1999.90;999.90;;;15.70;99.90;;;;;;5073404;28;20053;-74
2023/08/07 08:35:08;;;;;;;1999.90;999.90;;;15.80;99.90;;;;;;5056130;28;20056;-75
2023/08/07 08:37:34;;;;;;;1999.90;999.90;;;15.80;99.90;;;;;;5055492;28;20115;-75
2023/08/07 08:40:00;;;;;;;1999.90;999.90;;;15.80;99.90;;;;;;5055635;28;20046;-75
2023/08/07 08:42:26;;;;;;;1999.90;999.90;;;15.80;99.90;;;;;;5074385;28;20050;-72
2023/08/07 08:44:54;;;;;;;1999.90;999.90;;;15.80;99.90;;;;;;5073589;28;20080;-74
2023/08/07 08:47:21;;;;;;;1999.90;999.90;;;15.90;99.90;;;;;;5055886;28;20400;-80
2023/08/07 08:49:54;;;;;;;1999.90;999.90;;;15.90;99.90;;;;;;5039979;28;20357;-76
2023/08/07 08:52:21;;;;;;;1999.90;999.90;;;15.90;99.90;;;;;;5056692;28;20388;-75
2023/08/07 08:54:48;;;;;;;1999.90;999.90;;;16.00;99.90;;;;;;5074099;28;20387;-72
2023/08/07 08:57:13;;;;;;;1999.90;999.90;;;16.10;99.90;;;;;;5073371;28;20132;-72
2023/08/07 08:59:43;;;;;;;1999.90;999.90;;;16.20;99.90;;;;;;5055443;28;20127;-74
2023/08/07 09:02:10;;;;;;;1999.90;999.90;;;16.30;99.90;;;;;;5055603;28;20041;-75
2023/08/07 09:04:36;;;;;;;1999.90;999.90;;;16.30;99.90;;;;;;5039346;28;20056;-73
2023/08/07 09:07:02;;;;;;;1999.90;999.90;;;16.30;99.90;;;;;;5073333;28;20106;-78
2023/08/07 09:09:29;;;;;;;1999.90;999.90;;;16.30;99.90;;;;;;5055590;28;20056;-77
2023/08/07 09:11:58;;;;;;;1999.90;999.90;;;16.40;99.90;;;;;;5073309;28;20178;-74
2023/08/07 09:14:30;;;;;;;1999.90;999.90;;;16.40;99.90;;;;;;5055554;28;20062;-74
2023/08/07 09:16:59;;;;;;;1999.90;999.90;;;16.40;99.90;;;;;;5073312;28;20048;-72
2023/08/07 09:19:26;;;;;;;1999.90;999.90;;;16.40;99.90;;;;;;5072932;28;20052;-73
2023/08/07 09:21:52;;;;;;;1999.90;999.90;;;16.40;99.90;;;;;;5072994;28;20141;-74
2023/08/07 09:24:19;;;;;;;1999.90;999.90;;;16.40;99.90;;;;;;5073290;28;20080;-77
2023/08/07 09:26:45;;;;;;;1999.90;999.90;;;16.50;99.90;;;;;;5054751;28;20060;-74
2023/08/07 09:29:11;;;;;;;1999.90;999.90;;;16.50;99.90;;;;;;5072683;28;20484;-74
2023/08/07 09:31:37;;;;;;;1999.90;999.90;;;16.60;99.90;;;;;;5038645;28;20071;-77
2023/08/07 09:34:04;;;;;;;1999.90;999.90;;;16.60;99.90;;;;;;5073865;28;20357;-74
2023/08/07 09:36:31;;;;;;;1999.90;999.90;;;16.50;99.90;;;;;;5072809;28;20048;-75
2023/08/07 09:39:01;;;;;;;1999.90;999.90;;;16.30;99.90;;;;;;5073520;28;20084;-73
2023/08/07 09:41:29;;;;;;;1999.90;999.90;;;16.20;99.90;;;;;;5038714;28;20052;-72
2023/08/07 09:43:55;;;;;;;1999.90;999.90;;;16.10;99.90;;;;;;5073620;28;20053;-74
2023/08/07 09:46:21;;;;;;;1999.90;999.90;;;16.00;99.90;;;;;;5058521;28;20484;-74
2023/08/07 09:48:47;;;;;;;1999.90;999.90;;;16.00;99.90;;;;;;5042635;28;20071;-74
2023/08/07 09:51:13;;;;;;;1999.90;999.90;;;15.90;99.90;;;;;;5077298;28;20055;-76
2023/08/07 09:53:40;;;;;;;1999.90;999.90;;;15.90;99.90;;;;;;5076681;28;20392;-73
2023/08/07 09:56:06;;;;;;;1999.90;999.90;;;16.00;99.90;;;;;;5077385;28;20052;-75
2023/08/07 09:58:32;;;;;;;1999.90;999.90;;;16.10;99.90;;;;;;5058554;28;20054;-77
2023/08/07 10:01:04;;;;;;;1999.90;999.90;;;16.20;99.90;;;;;;5058924;28;20054;-77
2023/08/07 10:03:30;;;;;;;1999.90;999.90;;;16.30;99.90;;;;;;5077306;28;20037;-76
2023/08/07 10:05:56;;;;;;;1999.90;999.90;;;16.30;99.90;;;;;;5058813;28;20578;-74
2023/08/07 10:08:22;;;;;;;1999.90;999.90;;;16.40;99.90;;;;;;5058657;28;20101;-76
2023/08/07 10:10:48;;;;;;;1999.90;999.90;;;16.50;99.90;;;;;;5058507;28;20383;-74
2023/08/07 10:13:14;;;;;;;1999.90;999.90;;;16.70;99.90;;;;;;5076245;28;20098;-81
2023/08/07 10:15:43;;;;;;;1999.90;999.90;;;16.80;99.90;;;;;;5042035;28;20086;-80
2023/08/07 10:18:09;;;;;;;1999.90;999.90;;;16.90;99.90;;;;;;5076057;28;20479;-81
2023/08/07 10:20:36;;;;;;;1999.90;999.90;;;16.90;99.90;;;;;;5058430;28;20048;-80
2023/08/07 10:23:11;;;;;;;1999.90;999.90;;;16.90;99.90;;;;;;5056470;28;20487;-76
2023/08/07 10:25:43;;;;;;;1999.90;999.90;;;16.90;99.90;;;;;;5059337;28;20071;-74
2023/08/07 10:28:12;;;;;;;1999.90;999.90;;;16.80;99.90;;;;;;5058594;28;20057;-82
2023/08/07 10:30:40;;;;;;;1999.90;999.90;;;16.80;99.90;;;;;;5058341;28;20147;-80
2023/08/07 10:33:07;;;;;;;1999.90;999.90;;;16.60;99.90;;;;;;5059076;28;20044;-72
2023/08/07 10:35:33;;;;;;;1999.90;999.90;;;16.50;99.90;;;;;;5076507;28;20053;-80
2023/08/07 10:38:09;;;;;;;1999.90;999.90;;;16.50;99.90;;;;;;5075754;28;20044;-79
2023/08/07 10:41:00;;;;;;;1999.90;999.90;;;16.50;99.90;;;;;;5075855;28;20123;-82
2023/08/07 10:43:27;;;;;;;1999.90;999.90;;;16.60;99.90;;;;;;5062892;28;20057;-75
2023/08/07 10:45:53;;;;;;;1999.90;999.90;;;16.60;99.90;;;;;;5057357;28;20441;-71
2023/08/07 10:48:20;;;;;;;1999.90;999.90;;;16.70;99.90;;;;;;5075767;28;20423;-74
2023/08/07 10:51:04;;;;;;;1999.90;999.90;;;16.70;99.90;;;;;;5057581;28;20108;-80
2023/08/07 10:53:42;;;;;;;1999.90;999.90;;;16.70;99.90;;;;;;5040633;28;20037;-80
2023/08/07 10:56:09;;;;;;;1999.90;999.90;;;16.70;99.90;;;;;;5041239;28;20051;-78
2023/08/07 10:58:36;;;;;;;1999.90;999.90;;;16.60;99.90;;;;;;5040361;28;20492;-71
2023/08/07 11:01:19;;;;;;;1999.90;999.90;;;16.60;99.90;;;;;;5075855;28;20098;-72
2023/08/07 11:03:50;;;;;;;1999.90;999.90;;;16.60;99.90;;;;;;5075532;28;20056;-77
2023/08/07 11:06:17;;;;;;;1999.90;999.90;;;16.50;99.90;;;;;;5075428;28;20052;-75
2023/08/07 11:08:42;;;;;;;1999.90;999.90;;;16.50;99.90;;;;;;5056894;28;20071;-73
2023/08/07 11:11:08;;;;;;;1999.90;999.90;;;16.40;99.90;;;;;;5074849;28;20041;-74
2023/08/07 11:13:34;;;;;;;1999.90;999.90;;;16.40;99.90;;;;;;5057366;28;20079;-75
2023/08/07 11:16:03;;;;;;;1999.90;999.90;;;16.40;99.90;;;;;;5056642;28;20053;-74
2023/08/07 11:18:30;;;;;;;1999.90;999.90;;;16.50;99.90;;;;;;5075287;28;20380;-73
2023/08/07 11:20:56;;;;;;;1999.90;999.90;;;16.60;99.90;;;;;;5040395;28;20048;-73
2023/08/07 11:23:25;;;;;;;1999.90;999.90;;;16.80;99.90;;;;;;5056411;28;20044;-74
2023/08/07 11:25:53;;;;;;;1999.90;999.90;;;16.90;99.90;;;;;;5039852;28;20553;-75
2023/08/07 11:28:19;;;;;;;1999.90;999.90;;;17.00;99.90;;;;;;5040202;28;20081;-69
2023/08/07 11:30:50;;;;;;;1999.90;999.90;;;17.10;99.90;;;;;;5074345;28;20127;-80
2023/08/07 11:33:18;;;;;;;1999.90;999.90;;;17.20;99.90;;;;;;5057032;28;20044;-79
2023/08/07 11:35:44;;;;;;;1999.90;999.90;;;17.20;99.90;;;;;;5074274;28;20052;-79
2023/08/07 11:38:10;;;;;;;1999.90;999.90;;;17.20;99.90;;;;;;5057106;28;20054;-76
2023/08/07 11:40:35;;;;;;;1999.90;999.90;;;17.30;99.90;;;;;;5056765;28;20036;-79
2023/08/07 11:43:02;;;;;;;1999.90;999.90;;;17.30;99.90;;;;;;5056844;28;20174;-79
2023/08/07 11:45:28;;;;;;;1999.90;999.90;;;17.20;99.90;;;;;;5073822;28;20472;-77
2023/08/07 11:47:55;;;;;;;1999.90;999.90;;;17.10;99.90;;;;;;5057220;28;20059;-80
2023/08/07 11:50:27;;;;;;;1999.90;999.90;;;17.00;99.90;;;;;;5039501;28;20056;-80
2023/08/07 11:52:53;;;;;;;1999.90;999.90;;;16.90;99.90;;;;;;5075139;28;20060;-85
2023/08/07 11:55:19;;;;;;;1999.90;999.90;;;16.90;99.90;;;;;;5039635;28;20774;-80
2023/08/07 11:57:48;;;;;;;1999.90;999.90;;;17.00;99.90;;;;;;5056217;28;20051;-79